Time;durP1;ratioP1;P1;durP2;ratioP2;P2;SDS_P1;SDS_P2;PMS_P1;PMS_P2;Temp;Humidity;BMP_temperature;BMP_pressure;BME280_temperature;BME280_humidity;BME280_pressure;Samples;Min_cycle;Max_cycle;Signal;HPM_P1;HPM_P2
2022/01/29 00:01:09;;;;;;;58.50;38.43;;;6.50;99.90;;;;;;5032106;28;20112;-78
2022/01/29 00:03:36;;;;;;;64.17;39.03;;;;;;;;;;5023704;28;20040;-78
2022/01/29 00:06:02;;;;;;;66.77;41.40;;;5.60;99.90;;;;;;5012030;28;20033;-78
2022/01/29 00:08:28;;;;;;;68.93;42.37;;;;;;;;;;5011883;28;20026;-78
2022/01/29 00:11:01;;;;;;;66.60;41.33;;;;;;;;;;5011172;28;20161;-78
2022/01/29 00:13:27;;;;;;;69.50;42.17;;;6.60;99.90;;;;;;5012312;28;20017;-78
2022/01/29 00:15:52;;;;;;;64.40;40.67;;;6.60;99.90;;;;;;5012070;28;20036;-79
2022/01/29 00:18:18;;;;;;;71.80;42.43;;;;;;;;;;5017778;28;20041;-79
2022/01/29 00:20:44;;;;;;;72.60;43.70;;;;;;;;;;5031838;28;20055;-78
2022/01/29 00:23:10;;;;;;;73.67;43.63;;;;;;;;;;5032403;28;20021;-78
2022/01/29 00:25:36;;;;;;;64.73;40.80;;;6.80;99.90;;;;;;5031679;28;20064;-78
2022/01/29 00:28:02;;;;;;;74.13;44.03;;;6.70;99.90;;;;;;5031816;28;20115;-79
2022/01/29 00:30:37;;;;;;;76.80;43.87;;;6.50;99.90;;;;;;5032263;28;20471;-78
2022/01/29 00:33:02;;;;;;;76.17;46.60;;;;;;;;;;5032119;28;20101;-78
2022/01/29 00:35:28;;;;;;;81.90;44.40;;;6.40;99.90;;;;;;5025002;28;20061;-78
2022/01/29 00:37:54;;;;;;;70.30;43.87;;;;;;;;;;4994073;28;20037;-78
2022/01/29 00:40:21;;;;;;;77.83;46.33;;;6.50;99.90;;;;;;5012181;28;20030;-78
2022/01/29 00:42:48;;;;;;;86.07;47.30;;;6.40;99.90;;;;;;4993634;28;20026;-78
2022/01/29 00:45:13;;;;;;;75.63;44.77;;;;;;;;;;5012126;28;20080;-78
2022/01/29 00:47:39;;;;;;;87.17;49.43;;;6.30;99.90;;;;;;5011636;28;20034;-78
2022/01/29 00:50:05;;;;;;;81.13;48.53;;;6.50;99.90;;;;;;5012459;28;20441;-78
2022/01/29 00:52:30;;;;;;;77.80;42.60;;;6.60;99.90;;;;;;5014148;28;20549;-78
2022/01/29 00:54:56;;;;;;;76.23;45.47;;;6.80;99.90;;;;;;5031136;28;20029;-78
2022/01/29 00:57:22;;;;;;;88.43;44.87;;;6.50;99.90;;;;;;5031218;28;20129;-78
2022/01/29 00:59:47;;;;;;;79.87;43.83;;;6.40;99.90;;;;;;5013455;28;20424;-78
2022/01/29 01:02:13;;;;;;;80.77;50.77;;;;;;;;;;5031565;28;20367;-77
2022/01/29 01:04:39;;;;;;;86.73;46.87;;;6.20;99.90;;;;;;4997609;28;20100;-77
2022/01/29 01:07:09;;;;;;;77.13;46.00;;;6.60;99.90;;;;;;5011705;28;20491;-77
2022/01/29 01:09:35;;;;;;;86.63;47.63;;;;;;;;;;5011570;28;20026;-78
2022/01/29 01:12:01;;;;;;;84.20;46.63;;;6.50;99.90;;;;;;4993613;28;20034;-77
2022/01/29 01:14:26;;;;;;;87.80;49.07;;;6.50;99.90;;;;;;5011939;28;20060;-77
2022/01/29 01:16:52;;;;;;;84.70;47.13;;;6.70;99.90;;;;;;4993245;28;20060;-78
2022/01/29 01:19:17;;;;;;;81.50;46.47;;;6.60;99.90;;;;;;5006571;28;20048;-77
2022/01/29 01:21:43;;;;;;;86.07;46.53;;;;;;;;;;5030103;28;20029;-77
2022/01/29 01:24:09;;;;;;;80.43;47.23;;;6.70;99.90;;;;;;5031120;28;20033;-77
2022/01/29 01:26:35;;;;;;;83.00;46.70;;;;;;;;;;5012549;28;20087;-77
2022/01/29 01:29:00;;;;;;;82.17;46.13;;;6.70;99.90;;;;;;5030975;28;20060;-77
2022/01/29 01:31:26;;;;;;;80.10;47.40;;;6.70;99.90;;;;;;5030983;28;20467;-77
2022/01/29 01:33:52;;;;;;;90.33;49.70;;;6.60;99.90;;;;;;5030408;28;20038;-77
2022/01/29 01:36:22;;;;;;;76.67;42.43;;;;;;;;;;5018313;28;20026;-77
2022/01/29 01:39:02;;;;;;;82.77;46.67;;;6.60;99.90;;;;;;5010533;28;20065;-77
2022/01/29 01:41:29;;;;;;;74.77;44.47;;;6.60;99.90;;;;;;5010725;28;20018;-77
2022/01/29 01:44:02;;;;;;;71.90;44.37;;;6.60;99.90;;;;;;5010659;28;20022;-78
2022/01/29 01:46:28;;;;;;;68.63;43.43;;;;;;;;;;5011035;28;20072;-78
2022/01/29 01:48:54;;;;;;;74.00;44.50;;;6.50;99.90;;;;;;5020239;28;20548;-77
2022/01/29 01:51:20;;;;;;;83.10;47.20;;;6.60;99.90;;;;;;5030369;28;20068;-78
2022/01/29 01:53:46;;;;;;;79.53;44.20;;;6.80;99.90;;;;;;5012465;28;20021;-78
2022/01/29 01:56:11;;;;;;;76.93;46.03;;;6.70;99.90;;;;;;5012881;28;20033;-77
2022/01/29 01:58:37;;;;;;;75.73;43.27;;;;;;;;;;5012298;28;20033;-78
2022/01/29 02:01:03;;;;;;;74.63;44.57;;;6.80;99.90;;;;;;5030422;28;20108;-78
2022/01/29 02:03:29;;;;;;;81.60;45.23;;;;;;;;;;5029998;28;20030;-78
2022/01/29 02:05:55;;;;;;;75.77;44.20;;;6.70;99.90;;;;;;5012136;28;20037;-78
2022/01/29 02:08:21;;;;;;;76.30;43.13;;;6.70;99.90;;;;;;5030373;28;20095;-78
2022/01/29 02:10:48;;;;;;;74.57;45.23;;;6.70;99.90;;;;;;5029516;28;20029;-77
2022/01/29 02:13:13;;;;;;;79.70;45.77;;;6.70;99.90;;;;;;5030336;28;20457;-78
2022/01/29 02:15:40;;;;;;;74.10;46.83;;;;;;;;;;5028968;28;20053;-77
2022/01/29 02:18:05;;;;;;;81.30;45.73;;;7.20;99.90;;;;;;5026891;28;20040;-77
2022/01/29 02:20:32;;;;;;;84.37;47.57;;;6.60;99.90;;;;;;5035154;28;20025;-77
2022/01/29 02:23:00;;;;;;;66.40;43.50;;;7.00;99.90;;;;;;5049880;28;20025;-77
2022/01/29 02:25:29;;;;;;;89.10;50.33;;;6.80;99.90;;;;;;5049599;28;20017;-77
2022/01/29 02:28:05;;;;;;;87.13;49.70;;;6.90;99.90;;;;;;5049511;28;20144;-77
2022/01/29 02:30:33;;;;;;;89.50;50.10;;;6.70;99.90;;;;;;5050001;28;20029;-76
2022/01/29 02:33:00;;;;;;;80.07;46.07;;;6.60;99.90;;;;;;5031752;28;20643;-77
2022/01/29 02:35:27;;;;;;;81.43;47.70;;;6.70;99.90;;;;;;5038344;28;20018;-77
2022/01/29 02:37:53;;;;;;;90.43;49.60;;;6.70;99.90;;;;;;5009438;28;20048;-77
2022/01/29 02:40:19;;;;;;;83.07;47.30;;;6.60;99.90;;;;;;4992764;28;20399;-77
2022/01/29 02:42:45;;;;;;;80.37;46.87;;;;;;;;;;5009828;28;20034;-77
2022/01/29 02:45:11;;;;;;;79.30;45.53;;;;;;;;;;4992738;28;20030;-77
2022/01/29 02:47:37;;;;;;;89.47;51.00;;;;;;;;;;5009738;28;20113;-77
2022/01/29 02:50:03;;;;;;;87.37;51.13;;;;;;;;;;5028458;28;20124;-76
2022/01/29 02:52:29;;;;;;;89.53;47.93;;;6.80;99.90;;;;;;5029615;28;20038;-77
2022/01/29 02:54:55;;;;;;;82.37;47.80;;;;;;;;;;5027693;28;20775;-76
2022/01/29 02:57:21;;;;;;;81.13;49.23;;;;;;;;;;5029773;28;20045;-76
2022/01/29 02:59:47;;;;;;;87.30;45.37;;;;;;;;;;5029288;28;20025;-76
2022/01/29 03:02:12;;;;;;;71.83;45.67;;;6.60;99.90;;;;;;5012146;28;20033;-76
2022/01/29 03:04:38;;;;;;;74.73;43.40;;;6.60;99.90;;;;;;4997864;28;20030;-76
2022/01/29 03:07:03;;;;;;;82.60;45.83;;;6.60;99.90;;;;;;4992190;28;20022;-76
2022/01/29 03:09:29;;;;;;;85.03;47.10;;;6.80;99.90;;;;;;5010085;28;20026;-76
2022/01/29 03:11:56;;;;;;;85.07;46.00;;;6.70;99.90;;;;;;5009685;28;20037;-76
2022/01/29 03:14:22;;;;;;;77.60;45.90;;;;;;;;;;4996090;28;20030;-76
2022/01/29 03:16:47;;;;;;;78.77;47.90;;;6.40;99.90;;;;;;5012968;28;20040;-75
2022/01/29 03:19:13;;;;;;;81.37;45.83;;;;;;;;;;5023814;28;20037;-76
2022/01/29 03:21:39;;;;;;;78.20;46.30;;;;;;;;;;5012259;28;20033;-76
2022/01/29 03:24:05;;;;;;;67.33;41.17;;;6.80;99.90;;;;;;5013558;28;20040;-76
2022/01/29 03:26:31;;;;;;;78.60;47.10;;;;;;;;;;5010198;28;20030;-76
2022/01/29 03:28:57;;;;;;;74.27;41.00;;;6.70;99.90;;;;;;5011340;28;20058;-76
2022/01/29 03:31:26;;;;;;;69.70;42.40;;;6.70;99.90;;;;;;5011613;28;20030;-76
2022/01/29 03:33:55;;;;;;;73.03;44.40;;;7.20;99.90;;;;;;4993369;28;20033;-76
2022/01/29 03:36:21;;;;;;;75.50;41.17;;;6.70;99.90;;;;;;4995216;28;20026;-76
2022/01/29 03:38:46;;;;;;;70.50;40.10;;;6.90;99.90;;;;;;4995168;28;20372;-76
2022/01/29 03:41:13;;;;;;;75.03;43.97;;;6.80;99.90;;;;;;4995746;28;20022;-76
2022/01/29 03:43:45;;;;;;;77.87;43.50;;;6.80;99.90;;;;;;5012535;28;20022;-76
2022/01/29 03:46:11;;;;;;;64.93;39.43;;;6.70;99.90;;;;;;4994897;28;20025;-76
2022/01/29 03:48:37;;;;;;;64.47;40.70;;;;;;;;;;5004625;28;20033;-76
2022/01/29 03:51:03;;;;;;;69.33;40.93;;;;;;;;;;5032348;28;20060;-76
2022/01/29 03:53:29;;;;;;;84.33;44.87;;;;;;;;;;5032920;28;20026;-76
2022/01/29 03:55:54;;;;;;;68.60;41.90;;;6.80;99.90;;;;;;5031812;28;20048;-76
2022/01/29 03:58:20;;;;;;;68.13;41.03;;;;;;;;;;5032857;28;20041;-76
2022/01/29 04:00:45;;;;;;;70.70;42.80;;;6.80;99.90;;;;;;5032123;28;20104;-76
2022/01/29 04:03:11;;;;;;;72.23;40.60;;;7.00;99.90;;;;;;5026594;28;20157;-76
2022/01/29 04:05:37;;;;;;;71.80;42.57;;;6.80;99.90;;;;;;5011923;28;20471;-76
2022/01/29 04:08:06;;;;;;;71.70;43.40;;;6.90;99.90;;;;;;5012920;28;20025;-76
2022/01/29 04:10:32;;;;;;;88.67;45.37;;;;;;;;;;5012621;28;20030;-76
2022/01/29 04:12:58;;;;;;;72.07;41.87;;;;;;;;;;5012200;28;20040;-76
2022/01/29 04:15:24;;;;;;;86.97;45.23;;;6.80;99.90;;;;;;5012682;28;20032;-76
2022/01/29 04:17:49;;;;;;;78.93;45.03;;;6.90;99.90;;;;;;5015113;28;20398;-76
2022/01/29 04:20:15;;;;;;;76.27;42.63;;;7.00;99.90;;;;;;5028178;28;20045;-76
2022/01/29 04:22:40;;;;;;;82.30;43.93;;;6.90;99.90;;;;;;5012021;28;20030;-76
2022/01/29 04:25:07;;;;;;;99.27;50.03;;;;;;;;;;5012298;28;20431;-76
2022/01/29 04:27:45;;;;;;;85.77;49.27;;;7.10;99.90;;;;;;5012358;28;20052;-76
2022/01/29 04:30:50;;;;;;;83.20;45.60;;;7.00;99.90;;;;;;5012620;28;20025;-76
2022/01/29 04:33:28;;;;;;;93.13;48.20;;;7.00;99.90;;;;;;5013962;28;20041;-76
2022/01/29 04:35:58;;;;;;;97.53;50.03;;;7.00;99.90;;;;;;5031215;28;20481;-76
2022/01/29 04:38:24;;;;;;;91.63;49.07;;;;;;;;;;5014191;28;20033;-76
2022/01/29 04:40:49;;;;;;;91.07;45.20;;;7.10;99.90;;;;;;5031440;28;20025;-76
2022/01/29 04:43:15;;;;;;;92.60;49.13;;;;;;;;;;5031991;28;20038;-76
2022/01/29 04:45:41;;;;;;;87.80;47.47;;;7.20;99.90;;;;;;5011121;28;20030;-77
2022/01/29 04:48:07;;;;;;;92.67;48.03;;;;;;;;;;4993810;28;20026;-77
2022/01/29 04:50:33;;;;;;;89.30;46.07;;;7.30;99.90;;;;;;5011723;28;20056;-76
2022/01/29 04:52:58;;;;;;;83.23;46.27;;;7.30;99.90;;;;;;5011599;28;20144;-76
2022/01/29 04:55:24;;;;;;;98.90;50.10;;;7.20;99.90;;;;;;5012021;28;20018;-76
2022/01/29 04:57:49;;;;;;;91.40;48.20;;;7.30;99.90;;;;;;5030576;28;20048;-76
2022/01/29 05:00:19;;;;;;;100.83;52.63;;;7.30;99.90;;;;;;5031636;28;20085;-76
2022/01/29 05:02:46;;;;;;;88.53;46.70;;;7.30;99.90;;;;;;5030547;28;20501;-76
2022/01/29 05:05:12;;;;;;;93.83;51.77;;;7.40;99.90;;;;;;5031554;28;20033;-76
2022/01/29 05:07:37;;;;;;;97.17;50.57;;;7.40;99.90;;;;;;5031046;28;20026;-76
2022/01/29 05:10:04;;;;;;;102.97;51.30;;;7.40;99.90;;;;;;5013682;28;20022;-76
2022/01/29 05:12:39;;;;;;;100.47;53.33;;;7.20;99.90;;;;;;4998849;28;20038;-76
2022/01/29 05:15:12;;;;;;;104.93;54.57;;;;;;;;;;4993822;28;20028;-76
2022/01/29 05:28:33;;;;;;;104.13;51.17;;;7.30;99.90;;;;;;5031413;28;20080;-77
2022/01/29 05:30:59;;;;;;;88.50;49.03;;;7.60;99.90;;;;;;5030722;28;20029;-76
2022/01/29 05:33:25;;;;;;;92.07;48.03;;;7.40;99.90;;;;;;5030711;28;20030;-76
2022/01/29 05:35:51;;;;;;;105.63;51.37;;;;;;;;;;5012221;28;20049;-76
2022/01/29 05:38:16;;;;;;;98.03;51.40;;;7.40;99.90;;;;;;5013051;28;20434;-76
2022/01/29 05:40:42;;;;;;;96.40;48.07;;;7.50;99.90;;;;;;5012268;28;20094;-76
2022/01/29 05:43:07;;;;;;;98.30;51.57;;;7.60;99.90;;;;;;5011218;28;20028;-76
2022/01/29 05:45:33;;;;;;;107.27;51.80;;;7.60;99.90;;;;;;5011057;28;20053;-76
2022/01/29 05:47:58;;;;;;;105.47;51.87;;;;;;;;;;5010235;28;20030;-76
2022/01/29 05:50:24;;;;;;;98.27;50.87;;;7.50;99.90;;;;;;4993187;28;20050;-76
2022/01/29 05:52:49;;;;;;;93.83;49.90;;;7.70;99.90;;;;;;5010427;28;20061;-76
2022/01/29 05:55:15;;;;;;;108.40;53.00;;;7.60;99.90;;;;;;5010898;28;20475;-76
2022/01/29 05:57:40;;;;;;;101.40;52.90;;;7.80;99.90;;;;;;5011480;28;20073;-76
2022/01/29 06:00:07;;;;;;;94.93;50.00;;;;;;;;;;5030576;28;20035;-76
2022/01/29 06:02:32;;;;;;;85.47;49.47;;;;;;;;;;5030019;28;20749;-76
2022/01/29 06:04:58;;;;;;;103.93;51.20;;;;;;;;;;5012374;28;20025;-76
2022/01/29 06:07:24;;;;;;;91.23;49.93;;;7.70;99.90;;;;;;5030326;28;20029;-76
2022/01/29 06:09:50;;;;;;;86.27;47.07;;;;;;;;;;5029987;28;20027;-76
2022/01/29 06:12:15;;;;;;;90.27;46.90;;;7.70;99.90;;;;;;5017950;28;20438;-76
2022/01/29 06:14:41;;;;;;;74.53;42.50;;;7.90;99.90;;;;;;5010302;28;20029;-77
2022/01/29 06:17:07;;;;;;;73.73;42.87;;;;;;;;;;5010170;28;20029;-77
2022/01/29 06:19:32;;;;;;;87.83;46.73;;;8.00;99.90;;;;;;5010438;28;20144;-76
2022/01/29 06:21:58;;;;;;;82.63;44.67;;;;;;;;;;5010036;28;20022;-76
2022/01/29 06:24:24;;;;;;;82.17;44.20;;;7.90;99.90;;;;;;5010508;28;20360;-76
2022/01/29 06:26:50;;;;;;;86.37;44.67;;;;;;;;;;5000089;28;20026;-76
2022/01/29 06:29:15;;;;;;;74.10;42.77;;;8.00;99.90;;;;;;5030042;28;20524;-77
2022/01/29 06:31:41;;;;;;;78.70;42.77;;;7.90;99.90;;;;;;5011510;28;20516;-77
2022/01/29 06:34:06;;;;;;;75.97;41.27;;;7.90;99.90;;;;;;5029722;28;20100;-77
2022/01/29 06:36:32;;;;;;;69.70;40.67;;;;;;;;;;4999919;28;20018;-77
2022/01/29 06:38:58;;;;;;;69.87;39.30;;;;;;;;;;5029726;28;20099;-77
2022/01/29 06:41:23;;;;;;;59.87;36.17;;;8.00;99.90;;;;;;5029946;28;20379;-77
2022/01/29 06:43:49;;;;;;;66.10;39.00;;;;;;;;;;5029613;28;20449;-77
2022/01/29 06:46:15;;;;;;;69.67;38.73;;;8.20;99.90;;;;;;5011976;28;20429;-77
2022/01/29 06:48:40;;;;;;;64.93;37.80;;;8.20;99.90;;;;;;5032685;28;20453;-77
2022/01/29 06:51:06;;;;;;;64.13;38.27;;;8.20;99.90;;;;;;5033744;28;20567;-77
2022/01/29 06:53:32;;;;;;;65.80;38.03;;;;;;;;;;5033737;28;20033;-76
2022/01/29 06:55:57;;;;;;;68.23;36.63;;;8.20;99.90;;;;;;5033495;28;20083;-77
2022/01/29 06:58:23;;;;;;;65.50;37.33;;;8.30;99.90;;;;;;5033785;28;20037;-77
2022/01/29 07:00:48;;;;;;;61.70;36.97;;;8.50;99.90;;;;;;5032869;28;20029;-77
2022/01/29 07:03:14;;;;;;;55.83;34.97;;;;;;;;;;5033908;28;20045;-77
2022/01/29 07:05:40;;;;;;;54.07;33.13;;;8.20;99.90;;;;;;5033052;28;20021;-77
2022/01/29 07:08:05;;;;;;;59.20;35.37;;;8.30;99.90;;;;;;5033748;28;20052;-77
2022/01/29 07:10:31;;;;;;;56.43;32.93;;;8.20;99.90;;;;;;5033394;28;20056;-77
2022/01/29 07:12:57;;;;;;;56.90;33.73;;;;;;;;;;5033259;28;20104;-77
2022/01/29 07:15:22;;;;;;;63.97;34.97;;;8.40;99.90;;;;;;5033149;28;20072;-77
2022/01/29 07:17:48;;;;;;;54.63;34.30;;;8.40;99.90;;;;;;5014919;28;20044;-78
2022/01/29 07:20:13;;;;;;;52.47;33.23;;;8.30;99.90;;;;;;5033323;28;20036;-77
2022/01/29 07:22:39;;;;;;;50.97;32.40;;;8.00;99.90;;;;;;5032632;28;20040;-74
2022/01/29 07:25:06;;;;;;;48.27;31.67;;;8.30;99.90;;;;;;5033303;28;20044;-74
2022/01/29 07:27:32;;;;;;;53.90;33.23;;;;;;;;;;5032605;28;20017;-75
2022/01/29 07:29:58;;;;;;;48.33;29.37;;;8.40;99.90;;;;;;5033030;28;20437;-74
2022/01/29 07:32:23;;;;;;;50.37;31.03;;;8.50;99.90;;;;;;5015597;28;20025;-75
2022/01/29 07:34:49;;;;;;;55.50;30.27;;;8.30;99.90;;;;;;5032756;28;20021;-74
2022/01/29 07:37:15;;;;;;;49.30;27.37;;;;;;;;;;5033203;28;20030;-74
2022/01/29 07:39:41;;;;;;;48.97;27.73;;;8.40;99.90;;;;;;5032554;28;20258;-75
2022/01/29 07:42:07;;;;;;;45.77;26.90;;;8.40;99.90;;;;;;5015030;28;20053;-75
2022/01/29 07:44:32;;;;;;;41.90;25.77;;;8.50;99.90;;;;;;5032908;28;20042;-74
2022/01/29 07:46:58;;;;;;;38.20;25.33;;;;;;;;;;5014663;28;20112;-74
2022/01/29 07:49:24;;;;;;;37.30;21.43;;;;;;;;;;5032589;28;20041;-75
2022/01/29 07:51:49;;;;;;;35.17;22.87;;;8.50;99.90;;;;;;5032250;28;20049;-75
2022/01/29 07:54:15;;;;;;;34.57;22.53;;;8.60;99.90;;;;;;5015138;28;20030;-74
2022/01/29 07:56:40;;;;;;;42.00;23.90;;;8.50;99.90;;;;;;5031767;28;20041;-75
2022/01/29 07:59:06;;;;;;;33.93;22.30;;;8.60;99.90;;;;;;5032461;28;20034;-75
2022/01/29 08:01:32;;;;;;;37.77;22.67;;;;;;;;;;5014397;28;20496;-74
2022/01/29 08:03:58;;;;;;;37.77;22.03;;;;;;;;;;5031613;28;20717;-74
2022/01/29 08:06:26;;;;;;;37.47;22.07;;;8.60;99.90;;;;;;5032240;28;20032;-74
2022/01/29 08:08:51;;;;;;;38.90;23.77;;;8.70;99.90;;;;;;5031632;28;20483;-75
2022/01/29 08:11:17;;;;;;;37.60;21.37;;;;;;;;;;5031682;28;20044;-74
2022/01/29 08:13:46;;;;;;;44.03;24.30;;;8.90;99.90;;;;;;5031675;28;20033;-75
2022/01/29 08:16:12;;;;;;;36.67;22.43;;;;;;;;;;5031781;28;20316;-74
2022/01/29 08:18:38;;;;;;;40.57;23.13;;;;;;;;;;5031534;28;20087;-74
2022/01/29 08:21:03;;;;;;;40.97;24.70;;;8.80;99.90;;;;;;5032420;28;20108;-74
2022/01/29 08:23:28;;;;;;;32.93;23.07;;;8.80;99.90;;;;;;5032349;28;20067;-75
2022/01/29 08:25:54;;;;;;;36.97;24.30;;;8.90;99.90;;;;;;5031302;28;20034;-74
2022/01/29 08:28:20;;;;;;;37.57;25.37;;;;;;;;;;5032182;28;20091;-75
2022/01/29 08:30:46;;;;;;;37.53;23.77;;;8.80;99.90;;;;;;5031393;28;20424;-75
2022/01/29 08:33:17;;;;;;;39.27;23.37;;;8.90;99.90;;;;;;5031769;28;20067;-75
2022/01/29 08:35:43;;;;;;;34.87;22.37;;;;;;;;;;5031561;28;20025;-74
2022/01/29 08:38:08;;;;;;;37.40;23.27;;;8.90;99.90;;;;;;5031889;28;20041;-75
2022/01/29 08:40:34;;;;;;;41.40;25.53;;;9.10;99.90;;;;;;5031497;28;20033;-75
2022/01/29 08:42:59;;;;;;;38.20;24.63;;;9.00;99.90;;;;;;5031653;28;20036;-75
2022/01/29 08:45:25;;;;;;;32.90;22.13;;;8.90;99.90;;;;;;5031733;28;20091;-75
2022/01/29 08:47:50;;;;;;;42.57;24.70;;;9.00;99.90;;;;;;5031323;28;20033;-75
2022/01/29 08:50:16;;;;;;;35.33;23.37;;;;;;;;;;5031611;28;20041;-75
2022/01/29 08:52:42;;;;;;;38.07;23.93;;;9.00;99.90;;;;;;5013377;28;20029;-75
2022/01/29 08:55:10;;;;;;;32.97;22.27;;;9.10;99.90;;;;;;5031386;28;20017;-75
2022/01/29 08:57:36;;;;;;;34.77;21.40;;;;;;;;;;5031268;28;20041;-75
2022/01/29 09:00:04;;;;;;;35.63;22.93;;;9.20;99.90;;;;;;5013894;28;20035;-75
2022/01/29 09:02:30;;;;;;;35.40;22.53;;;;;;;;;;5031362;28;20037;-74
2022/01/29 09:04:57;;;;;;;32.73;21.63;;;9.20;99.90;;;;;;5030974;28;20572;-75
2022/01/29 09:07:23;;;;;;;31.60;20.93;;;9.10;99.90;;;;;;5031634;28;20056;-74
2022/01/29 09:09:49;;;;;;;34.77;21.67;;;;;;;;;;5029682;28;20140;-75
2022/01/29 09:12:15;;;;;;;29.60;20.50;;;;;;;;;;5031420;28;20072;-75
2022/01/29 09:14:41;;;;;;;28.77;20.23;;;;;;;;;;5030788;28;20025;-75
2022/01/29 09:17:07;;;;;;;32.83;21.83;;;9.00;99.90;;;;;;5030940;28;20029;-75
2022/01/29 09:19:32;;;;;;;31.63;20.80;;;9.30;99.90;;;;;;5031170;28;20037;-75
2022/01/29 09:21:58;;;;;;;30.07;20.10;;;9.20;99.90;;;;;;5030890;28;20037;-75
2022/01/29 09:24:24;;;;;;;30.13;21.00;;;;;;;;;;5030840;28;20108;-75
2022/01/29 09:26:50;;;;;;;32.17;20.57;;;9.30;99.90;;;;;;5030654;28;20087;-75
2022/01/29 09:29:15;;;;;;;32.13;22.83;;;9.30;99.90;;;;;;5031066;28;20033;-75
2022/01/29 09:31:41;;;;;;;28.03;21.37;;;9.40;99.90;;;;;;5030355;28;20036;-75
2022/01/29 09:34:06;;;;;;;28.73;21.17;;;9.40;99.90;;;;;;5013411;28;20422;-75
2022/01/29 09:36:32;;;;;;;32.60;21.83;;;9.40;99.90;;;;;;5030784;28;20025;-75
2022/01/29 09:38:58;;;;;;;28.13;21.37;;;;;;;;;;5029712;28;20084;-75
2022/01/29 09:41:25;;;;;;;24.83;19.00;;;9.50;99.90;;;;;;5013239;28;20034;-75
2022/01/29 09:43:52;;;;;;;29.37;19.47;;;9.20;99.90;;;;;;5030156;28;20823;-75
2022/01/29 09:46:18;;;;;;;25.27;17.73;;;9.60;99.90;;;;;;5013096;28;20033;-75
2022/01/29 09:48:44;;;;;;;25.03;20.00;;;9.10;99.90;;;;;;5030293;28;20067;-74
2022/01/29 09:51:13;;;;;;;25.07;19.43;;;9.60;99.90;;;;;;5030337;28;20091;-75
2022/01/29 09:53:40;;;;;;;23.63;17.53;;;9.70;99.90;;;;;;5011992;28;20041;-75
2022/01/29 09:56:05;;;;;;;23.80;16.97;;;9.70;99.90;;;;;;5030638;28;20026;-75
2022/01/29 09:58:31;;;;;;;22.50;15.43;;;;;;;;;;5030402;28;20037;-75
2022/01/29 10:00:57;;;;;;;21.00;16.63;;;9.70;99.90;;;;;;5030191;28;20029;-75
2022/01/29 10:03:23;;;;;;;20.07;17.30;;;9.80;99.90;;;;;;5012642;28;20021;-75
2022/01/29 10:05:51;;;;;;;18.90;14.40;;;9.80;99.90;;;;;;5011953;28;20032;-75
2022/01/29 10:08:18;;;;;;;17.57;13.53;;;9.70;99.90;;;;;;5029554;28;20506;-74
2022/01/29 10:10:49;;;;;;;14.83;12.57;;;9.90;99.90;;;;;;5028486;28;20021;-74
2022/01/29 10:13:25;;;;;;;14.23;11.90;;;9.80;99.90;;;;;;5029807;28;20044;-75
2022/01/29 10:16:02;;;;;;;15.20;11.13;;;10.20;99.90;;;;;;5030292;28;20083;-74
2022/01/29 10:18:27;;;;;;;16.50;12.03;;;9.80;99.90;;;;;;5013305;28;20037;-75
2022/01/29 10:21:07;;;;;;;16.23;12.87;;;9.40;99.90;;;;;;5031831;28;20429;-75
2022/01/29 10:23:33;;;;;;;17.57;12.00;;;;;;;;;;5028684;28;20025;-75
2022/01/29 10:26:00;;;;;;;14.00;10.87;;;9.80;99.90;;;;;;5025306;28;20026;-75
2022/01/29 10:28:26;;;;;;;16.87;12.10;;;9.90;99.90;;;;;;5030882;28;20433;-75
2022/01/29 10:31:04;;;;;;;14.03;10.53;;;9.80;99.90;;;;;;5011151;28;20462;-76
2022/01/29 10:33:36;;;;;;;11.03;9.33;;;10.10;99.90;;;;;;5029623;28;20469;-75
2022/01/29 10:36:04;;;;;;;12.77;9.83;;;10.00;99.90;;;;;;5029124;28;20021;-76
2022/01/29 10:38:50;;;;;;;18.97;9.87;;;10.10;99.90;;;;;;5029984;28;20033;-75
2022/01/29 10:41:26;;;;;;;14.20;9.63;;;10.10;99.90;;;;;;5029298;28;20030;-75
2022/01/29 10:44:02;;;;;;;13.67;9.77;;;10.20;99.90;;;;;;5028790;28;20153;-75
2022/01/29 10:46:30;;;;;;;14.73;9.77;;;10.30;99.90;;;;;;5028583;28;20022;-76
2022/01/29 10:48:57;;;;;;;10.07;8.97;;;10.40;99.90;;;;;;5028668;28;20042;-75
2022/01/29 10:51:23;;;;;;;16.43;9.03;;;;;;;;;;5025840;28;20201;-75
2022/01/29 10:53:49;;;;;;;9.70;7.50;;;10.50;99.90;;;;;;5022303;28;20205;-76
2022/01/29 10:56:15;;;;;;;11.63;7.50;;;10.40;99.90;;;;;;5029419;28;20997;-76
2022/01/29 10:58:42;;;;;;;11.50;8.67;;;10.40;99.90;;;;;;5028725;28;20041;-75
2022/01/29 11:01:13;;;;;;;9.17;7.17;;;10.40;99.90;;;;;;5011667;28;20044;-76
2022/01/29 11:03:38;;;;;;;8.23;6.07;;;10.50;99.90;;;;;;5028511;28;20032;-77
2022/01/29 11:06:07;;;;;;;9.83;5.57;;;10.50;99.90;;;;;;5029057;28;20030;-77
2022/01/29 11:08:34;;;;;;;8.70;5.10;;;10.90;99.90;;;;;;5029356;28;20544;-76
2022/01/29 11:11:00;;;;;;;10.13;6.83;;;10.70;99.90;;;;;;5011246;28;20022;-76
2022/01/29 11:13:26;;;;;;;8.00;4.60;;;;;;;;;;5029116;28;20029;-76
2022/01/29 11:15:54;;;;;;;11.80;5.03;;;10.60;99.90;;;;;;5028974;28;20436;-75
2022/01/29 11:18:20;;;;;;;15.60;4.33;;;10.60;99.90;;;;;;5025960;28;20042;-75
2022/01/29 11:20:46;;;;;;;8.20;4.60;;;10.60;99.90;;;;;;5028117;28;20037;-74
2022/01/29 11:23:12;;;;;;;9.30;3.97;;;10.80;99.90;;;;;;5028891;28;20029;-75
2022/01/29 11:25:38;;;;;;;7.27;3.60;;;10.70;99.90;;;;;;5019332;28;20033;-75
2022/01/29 11:28:16;;;;;;;7.60;3.90;;;10.60;99.90;;;;;;5007944;28;20030;-74
2022/01/29 11:30:43;;;;;;;9.63;4.27;;;10.70;99.90;;;;;;5009127;28;20037;-75
2022/01/29 11:33:09;;;;;;;9.43;3.93;;;10.80;99.90;;;;;;4992281;28;20491;-76
2022/01/29 11:35:53;;;;;;;5.43;3.10;;;10.80;99.90;;;;;;5012849;28;20064;-75
2022/01/29 11:38:32;;;;;;;7.03;3.38;;;10.80;99.90;;;;;;5013193;28;20034;-76
2022/01/29 11:41:00;;;;;;;10.53;3.20;;;10.80;99.90;;;;;;5012841;28;20502;-76
2022/01/29 11:43:26;;;;;;;8.93;2.80;;;11.20;99.90;;;;;;5013344;28;20022;-75
2022/01/29 11:46:03;;;;;;;4.77;2.43;;;10.90;99.90;;;;;;5015977;28;20056;-76
2022/01/29 11:48:31;;;;;;;5.27;2.10;;;;;;;;;;5014993;28;20033;-76
2022/01/29 11:51:07;;;;;;;7.43;3.07;;;11.00;99.90;;;;;;4994368;28;20050;-76
2022/01/29 11:53:45;;;;;;;4.93;2.83;;;10.80;99.90;;;;;;5013057;28;20026;-76
2022/01/29 11:56:25;;;;;;;7.03;2.57;;;10.90;99.90;;;;;;5023723;28;20026;-76
2022/01/29 11:59:19;;;;;;;8.37;1.87;;;10.50;99.90;;;;;;5030934;28;20056;-76
2022/01/29 12:01:45;;;;;;;13.88;2.38;;;10.70;99.90;;;;;;5023676;28;20049;-76
2022/01/29 12:04:12;;;;;;;3.50;1.63;;;;;;;;;;5012628;28;20084;-76
2022/01/29 12:06:43;;;;;;;6.57;1.70;;;10.60;99.90;;;;;;5012356;28;20018;-76
2022/01/29 12:09:14;;;;;;;8.27;2.00;;;10.60;99.90;;;;;;5012993;28;20050;-76
2022/01/29 12:11:42;;;;;;;3.93;2.40;;;10.70;99.90;;;;;;5029416;28;20073;-76
2022/01/29 12:14:13;;;;;;;4.07;2.00;;;10.90;99.90;;;;;;5014744;28;20075;-75
2022/01/29 12:16:54;;;;;;;9.87;2.13;;;10.70;99.90;;;;;;5031830;28;20066;-75
2022/01/29 12:19:42;;;;;;;4.17;1.97;;;11.00;99.90;;;;;;5030576;28;20091;-75
2022/01/29 12:22:23;;;;;;;10.57;1.83;;;10.90;99.90;;;;;;5022965;28;20028;-76
2022/01/29 12:24:54;;;;;;;3.70;1.50;;;10.70;99.90;;;;;;5051681;28;20020;-75
2022/01/29 12:27:21;;;;;;;10.93;1.93;;;;;;;;;;5040026;28;20021;-75
2022/01/29 12:29:47;;;;;;;9.67;1.90;;;;;;;;;;5031151;28;20033;-75
2022/01/29 12:32:13;;;;;;;6.53;2.57;;;11.00;99.90;;;;;;5031007;28;20040;-75
2022/01/29 12:34:39;;;;;;;3.97;1.63;;;10.90;99.90;;;;;;5013493;28;20033;-75
2022/01/29 12:37:10;;;;;;;11.77;2.10;;;11.00;99.90;;;;;;5031673;28;20033;-74
2022/01/29 12:39:37;;;;;;;7.53;2.53;;;11.00;99.90;;;;;;5028990;28;20033;-74
2022/01/29 12:42:56;;;;;;;3.67;1.93;;;11.00;99.90;;;;;;5030037;28;20026;-75
2022/01/29 12:44:55;;;;;;;7.53;1.83;;;11.20;99.90;;;;;;5013175;28;20040;-75
2022/01/29 12:47:35;;;;;;;5.73;1.67;;;11.40;99.90;;;;;;5030968;28;20037;-75
2022/01/29 12:50:01;;;;;;;6.17;1.83;;;;;;;;;;5030022;28;20041;-75
2022/01/29 12:52:28;;;;;;;8.03;2.70;;;11.30;99.90;;;;;;5032996;28;20029;-76
2022/01/29 12:54:57;;;;;;;6.27;1.43;;;11.30;99.90;;;;;;5026729;28;20028;-76
2022/01/29 12:57:24;;;;;;;7.47;2.37;;;11.20;99.90;;;;;;5020219;28;20037;-76
2022/01/29 12:59:50;;;;;;;4.10;1.57;;;11.10;99.90;;;;;;5011176;28;20112;-75
2022/01/29 13:02:15;;;;;;;5.97;2.07;;;11.20;99.90;;;;;;5019977;28;20564;-75
2022/01/29 13:04:46;;;;;;;7.20;2.60;;;11.00;99.90;;;;;;5030346;28;20033;-75
2022/01/29 13:07:12;;;;;;;3.87;1.77;;;;;;;;;;5030906;28;20021;-75
2022/01/29 13:09:37;;;;;;;10.43;2.73;;;10.90;99.90;;;;;;5029949;28;20074;-75
2022/01/29 13:12:10;;;;;;;4.60;1.80;;;11.00;99.90;;;;;;5012701;28;20421;-75
2022/01/29 13:14:36;;;;;;;5.83;1.93;;;;;;;;;;5026960;28;20100;-75